Time;durP1;ratioP1;P1;durP2;ratioP2;P2;SDS_P1;SDS_P2;PMS_P1;PMS_P2;Temp;Humidity;BMP_temperature;BMP_pressure;BME280_temperature;BME280_humidity;BME280_pressure;Samples;Min_cycle;Max_cycle;Signal;HPM_P1;HPM_P2
2021/06/29 00:01:06;;;;;;;32.88;16.80;;;17.60;99.90;;;;;;5194376;27;20387;-85
2021/06/29 00:04:06;;;;;;;35.22;17.75;;;17.60;99.90;;;;;;5123432;27;20467;-78
2021/06/29 00:07:05;;;;;;;28.48;15.68;;;17.60;99.90;;;;;;5123214;27;20409;-79
2021/06/29 00:09:44;;;;;;;26.02;14.05;;;17.60;99.90;;;;;;4476349;27;18777867;-78
2021/06/29 00:12:40;;;;;;;27.25;13.90;;;17.50;99.90;;;;;;5203063;27;20402;-78
2021/06/29 00:15:48;;;;;;;26.50;13.77;;;17.60;99.90;;;;;;5158257;27;20400;-79
2021/06/29 00:19:06;;;;;;;29.63;14.93;;;17.50;99.90;;;;;;5155133;27;20400;-78
2021/06/29 00:21:44;;;;;;;25.23;15.52;;;17.50;99.90;;;;;;4482056;27;18626650;-78
2021/06/29 00:24:48;;;;;;;28.52;14.45;;;17.50;99.90;;;;;;5154438;27;20395;-79
2021/06/29 00:27:44;;;;;;;25.85;14.40;;;17.50;99.90;;;;;;5130744;27;20427;-78
2021/06/29 00:30:57;;;;;;;29.85;14.98;;;17.50;99.90;;;;;;5152415;27;20390;-79
2021/06/29 00:33:41;;;;;;;26.75;13.73;;;17.50;99.90;;;;;;3879622;27;33196961;-78
2021/06/29 00:36:42;;;;;;;27.75;12.32;;;17.00;99.90;;;;;;5154127;27;20837;-78
2021/06/29 00:39:19;;;;;;;24.85;13.93;;;17.50;99.90;;;;;;4172444;27;24659613;-78
2021/06/29 00:42:12;;;;;;;27.42;13.35;;;17.50;99.90;;;;;;5129910;27;20405;-88
2021/06/29 00:45:17;;;;;;;32.13;15.32;;;17.50;99.90;;;;;;5186856;27;20403;-78
2021/06/29 00:48:13;;;;;;;28.92;14.23;;;17.50;99.90;;;;;;5188146;27;20389;-79
2021/06/29 00:51:15;;;;;;;28.88;14.93;;;17.50;99.90;;;;;;5203005;27;20381;-78
2021/06/29 00:54:17;;;;;;;26.00;13.60;;;17.50;99.90;;;;;;5207662;27;20397;-93
2021/06/29 00:57:12;;;;;;;41.35;15.95;;;17.50;99.90;;;;;;5168917;27;20387;-83
2021/06/29 01:00:10;;;;;;;25.35;13.68;;;17.40;99.90;;;;;;5203101;27;21112;-78
2021/06/29 01:03:03;;;;;;;25.90;14.45;;;17.40;99.90;;;;;;5092537;27;20464;-78
2021/06/29 01:05:41;;;;;;;30.50;15.38;;;17.40;99.90;;;;;;4481349;27;18631001;-78
2021/06/29 01:08:33;;;;;;;28.83;14.02;;;17.30;99.90;;;;;;5131704;27;20413;-79
2021/06/29 01:11:49;;;;;;;26.20;15.32;;;17.40;99.90;;;;;;5194170;27;20390;-78
2021/06/29 01:14:45;;;;;;;30.60;15.23;;;17.30;99.90;;;;;;5159533;27;20345;-79
2021/06/29 01:18:21;;;;;;;29.95;14.88;;;17.40;99.90;;;;;;5137277;27;20426;-78
2021/06/29 01:21:41;;;;;;;28.80;14.00;;;17.40;99.90;;;;;;5145447;27;20398;-78
2021/06/29 01:35:11;;;;;;;31.25;17.55;;;17.20;99.90;;;;;;5138994;27;20420;-79
2021/06/29 01:38:10;;;;;;;28.13;15.55;;;17.20;99.90;;;;;;5131418;27;20405;-78
2021/06/29 01:41:06;;;;;;;31.23;14.88;;;17.20;99.90;;;;;;5201921;27;20389;-78
2021/06/29 01:44:26;;;;;;;31.42;15.95;;;17.20;99.90;;;;;;5116817;27;20388;-79
2021/06/29 01:47:31;;;;;;;27.65;14.88;;;17.20;99.90;;;;;;5129916;27;20437;-78
2021/06/29 01:50:27;;;;;;;33.28;16.33;;;17.20;99.90;;;;;;5204476;27;20377;-79
2021/06/29 01:53:24;;;;;;;33.92;15.10;;;17.20;99.90;;;;;;5193664;27;20391;-80
2021/06/29 01:56:35;;;;;;;30.17;14.93;;;17.20;99.90;;;;;;5195370;27;20383;-79
2021/06/29 01:59:32;;;;;;;31.77;14.82;;;17.10;99.90;;;;;;5204429;27;20377;-79
2021/06/29 02:02:26;;;;;;;29.75;13.25;;;17.10;99.90;;;;;;5130479;27;20429;-79
2021/06/29 02:05:23;;;;;;;34.72;15.77;;;17.10;99.90;;;;;;5198457;27;20385;-79
2021/06/29 02:08:19;;;;;;;28.08;14.38;;;17.10;99.90;;;;;;5204523;27;20393;-79
2021/06/29 02:11:40;;;;;;;33.00;15.13;;;17.20;99.90;;;;;;5204646;27;20385;-78
2021/06/29 02:14:37;;;;;;;27.65;14.73;;;17.10;99.90;;;;;;5195967;27;20971;-78
2021/06/29 02:17:35;;;;;;;33.47;15.50;;;17.10;99.90;;;;;;5125130;27;20409;-79
2021/06/29 02:20:30;;;;;;;30.35;15.63;;;17.10;99.90;;;;;;5111310;27;20490;-83
2021/06/29 02:23:27;;;;;;;30.88;14.32;;;17.10;99.90;;;;;;5187473;27;20921;-79
2021/06/29 02:26:29;;;;;;;43.20;15.90;;;17.00;99.90;;;;;;5042940;28;20425;-79
2021/06/29 02:29:25;;;;;;;35.47;15.85;;;17.00;99.90;;;;;;5205389;27;20377;-78
2021/06/29 02:32:58;;;;;;;33.38;16.05;;;17.00;99.90;;;;;;5159885;27;20411;-78
2021/06/29 02:35:54;;;;;;;30.67;16.50;;;17.00;99.90;;;;;;5195824;27;20447;-78
2021/06/29 02:38:49;;;;;;;37.85;18.15;;;17.00;99.90;;;;;;5204329;27;20373;-78
2021/06/29 02:41:46;;;;;;;29.75;14.77;;;17.00;99.90;;;;;;5185966;27;21231;-79
2021/06/29 02:45:08;;;;;;;29.48;15.70;;;16.90;99.90;;;;;;5160186;27;20377;-79
2021/06/29 02:48:04;;;;;;;28.00;13.52;;;17.00;99.90;;;;;;5100050;27;20137;-79
2021/06/29 02:51:01;;;;;;;30.83;14.88;;;16.90;99.90;;;;;;5120607;27;20469;-79
2021/06/29 02:54:12;;;;;;;29.45;13.50;;;16.90;99.90;;;;;;5127044;27;20408;-78
2021/06/29 02:57:09;;;;;;;34.42;18.45;;;16.90;99.90;;;;;;5191779;27;20392;-87
2021/06/29 03:00:19;;;;;;;34.60;16.83;;;16.90;99.90;;;;;;5075120;27;20402;-86
2021/06/29 03:03:26;;;;;;;54.38;18.75;;;16.80;99.90;;;;;;5190351;27;20413;-84
2021/06/29 03:09:43;;;;;;;38.25;17.42;;;16.80;99.90;;;;;;5163183;27;20377;-79
2021/06/29 03:12:39;;;;;;;30.30;14.88;;;16.70;99.90;;;;;;5204424;27;20373;-79
2021/06/29 03:15:43;;;;;;;30.30;14.93;;;16.70;99.90;;;;;;5196922;27;20385;-79
2021/06/29 03:18:41;;;;;;;37.83;15.43;;;16.70;99.90;;;;;;5201339;27;20397;-79
2021/06/29 03:21:38;;;;;;;26.25;14.48;;;16.60;99.90;;;;;;5204715;27;20393;-79
2021/06/29 03:24:34;;;;;;;35.63;15.25;;;16.60;99.90;;;;;;5205262;27;20377;-79
2021/06/29 03:27:26;;;;;;;29.23;14.73;;;16.60;99.90;;;;;;5132716;27;20394;-79
2021/06/29 03:30:22;;;;;;;32.80;18.33;;;16.60;99.90;;;;;;5203801;27;20388;-80
2021/06/29 03:33:24;;;;;;;25.23;13.73;;;16.60;99.90;;;;;;5157224;27;20403;-79
2021/06/29 03:36:01;;;;;;;28.70;13.65;;;16.60;99.90;;;;;;4430744;27;18678063;-78
2021/06/29 03:38:57;;;;;;;32.28;13.40;;;16.60;99.90;;;;;;5205384;27;20369;-79
2021/06/29 03:41:49;;;;;;;38.67;15.38;;;16.60;99.90;;;;;;5132362;27;20401;-78
2021/06/29 03:44:58;;;;;;;22.83;11.73;;;16.50;99.90;;;;;;5160466;27;20396;-79
2021/06/29 03:47:57;;;;;;;27.70;14.15;;;16.50;99.90;;;;;;5172887;27;20395;-83
2021/06/29 03:50:56;;;;;;;34.53;14.55;;;16.50;99.90;;;;;;5162785;27;20425;-78
2021/06/29 03:54:08;;;;;;;28.10;14.85;;;16.50;99.90;;;;;;5189703;27;20394;-78
2021/06/29 03:57:04;;;;;;;32.88;13.80;;;16.50;99.90;;;;;;5193326;27;20838;-84
2021/06/29 04:00:11;;;;;;;34.83;13.50;;;16.50;99.90;;;;;;5107010;27;20339;-77
2021/06/29 04:03:11;;;;;;;27.52;14.50;;;16.50;99.90;;;;;;5126083;27;20455;-77
2021/06/29 04:06:41;;;;;;;26.60;14.65;;;16.50;99.90;;;;;;5159966;27;20399;-78
2021/06/29 04:09:40;;;;;;;33.97;15.32;;;16.50;99.90;;;;;;5205256;27;20389;-79
2021/06/29 04:16:05;;;;;;;27.67;13.27;;;16.50;99.90;;;;;;5200170;27;20375;-78
2021/06/29 04:19:12;;;;;;;35.17;14.45;;;16.50;99.90;;;;;;5144374;27;20457;-78
2021/06/29 04:22:11;;;;;;;36.72;15.40;;;16.50;99.90;;;;;;5117223;27;20366;-78
2021/06/29 04:25:10;;;;;;;29.05;13.20;;;16.50;99.90;;;;;;5125024;27;20401;-78
2021/06/29 04:28:02;;;;;;;28.30;14.57;;;16.40;99.90;;;;;;5118094;27;20882;-78
2021/06/29 04:31:00;;;;;;;29.85;14.20;;;16.40;99.90;;;;;;5198657;27;20432;-77
2021/06/29 04:34:08;;;;;;;31.67;13.77;;;16.40;99.90;;;;;;5205086;27;20401;-78
2021/06/29 04:37:05;;;;;;;32.08;15.07;;;16.40;99.90;;;;;;5121758;27;20326;-78
2021/06/29 04:40:01;;;;;;;31.00;14.27;;;16.30;99.90;;;;;;5204448;27;20409;-79
2021/06/29 04:43:12;;;;;;;29.60;15.30;;;16.30;99.90;;;;;;5139097;27;20405;-79
2021/06/29 04:46:17;;;;;;;33.97;15.32;;;16.30;99.90;;;;;;5197176;27;20390;-78
2021/06/29 04:49:41;;;;;;;35.38;14.20;;;16.30;99.90;;;;;;5158633;27;21042;-78
2021/06/29 04:52:55;;;;;;;31.35;14.23;;;14.80;99.90;;;;;;5141931;27;20408;-79
2021/06/29 04:55:57;;;;;;;30.05;12.88;;;16.30;99.90;;;;;;5149566;27;20123;-78
2021/06/29 04:59:05;;;;;;;32.03;15.13;;;16.20;99.90;;;;;;5111503;27;20430;-78
2021/06/29 05:01:43;;;;;;;31.10;14.88;;;16.30;99.90;;;;;;4078854;27;28295803;-78
2021/06/29 05:04:41;;;;;;;28.83;14.07;;;16.30;99.90;;;;;;5202508;27;20389;-79
2021/06/29 05:07:43;;;;;;;26.85;15.15;;;16.20;99.90;;;;;;5079917;28;20797;-77
2021/06/29 05:10:20;;;;;;;30.55;12.75;;;16.30;99.90;;;;;;3924625;27;33285519;-78
2021/06/29 05:12:59;;;;;;;29.83;14.95;;;16.20;99.90;;;;;;4493669;27;18659872;-77
2021/06/29 05:16:14;;;;;;;27.50;13.80;;;16.20;99.90;;;;;;5155543;27;20402;-78
2021/06/29 05:19:10;;;;;;;26.52;13.82;;;16.30;99.90;;;;;;5183323;27;20391;-78
2021/06/29 05:22:27;;;;;;;32.38;14.77;;;16.30;99.90;;;;;;5106488;27;20403;-85
2021/06/29 05:25:28;;;;;;;31.33;13.82;;;16.30;99.90;;;;;;5160832;27;20380;-77
2021/06/29 05:28:27;;;;;;;29.20;13.00;;;16.30;99.90;;;;;;5203369;27;20413;-78
2021/06/29 05:31:25;;;;;;;21.00;11.07;;;16.30;99.90;;;;;;5193175;27;21066;-78
2021/06/29 05:34:29;;;;;;;25.00;10.85;;;16.30;99.90;;;;;;5203011;27;20381;-78
2021/06/29 05:37:26;;;;;;;29.90;10.18;;;16.40;99.90;;;;;;5203302;27;20401;-78
2021/06/29 05:40:24;;;;;;;23.52;11.10;;;16.40;99.90;;;;;;5202463;27;20401;-78
2021/06/29 05:43:20;;;;;;;21.23;10.85;;;16.40;99.90;;;;;;5200786;27;20401;-78
2021/06/29 05:46:24;;;;;;;35.83;10.77;;;16.40;99.90;;;;;;5132778;27;20402;-79
2021/06/29 05:49:30;;;;;;;20.48;10.30;;;16.40;99.90;;;;;;5142342;27;20407;-78
2021/06/29 05:52:42;;;;;;;20.13;9.70;;;16.40;99.90;;;;;;5200116;27;20393;-78
2021/06/29 05:55:18;;;;;;;16.60;10.18;;;16.40;99.90;;;;;;4446831;27;18610508;-78
2021/06/29 05:58:27;;;;;;;19.33;9.60;;;16.50;99.90;;;;;;5136090;27;20405;-79
2021/06/29 06:01:45;;;;;;;15.48;9.25;;;16.50;99.90;;;;;;5131028;27;20402;-78
2021/06/29 06:04:23;;;;;;;15.82;8.43;;;16.50;99.90;;;;;;4467819;27;18860318;-78
2021/06/29 06:07:19;;;;;;;16.88;7.95;;;16.50;99.90;;;;;;5194327;27;20389;-78
2021/06/29 06:09:56;;;;;;;17.70;10.45;;;16.60;99.90;;;;;;4477834;27;18720171;-77
2021/06/29 06:12:59;;;;;;;18.73;8.73;;;16.60;99.90;;;;;;5193391;27;20373;-78
2021/06/29 06:15:56;;;;;;;19.30;8.73;;;16.60;99.90;;;;;;5101386;27;20678;-78
2021/06/29 06:18:52;;;;;;;13.82;8.55;;;16.20;99.90;;;;;;5194189;27;21198;-78
2021/06/29 06:21:47;;;;;;;15.65;8.68;;;16.60;99.90;;;;;;5125116;27;20390;-78
2021/06/29 06:24:59;;;;;;;20.52;10.00;;;16.60;99.90;;;;;;5125084;27;20396;-85
2021/06/29 06:28:12;;;;;;;18.27;8.68;;;16.60;99.90;;;;;;5075295;28;20348;-77
2021/06/29 06:31:08;;;;;;;20.05;9.65;;;16.50;99.90;;;;;;5194666;27;20374;-78
2021/06/29 06:34:04;;;;;;;15.95;8.80;;;16.60;99.90;;;;;;5202055;27;20408;-77
2021/06/29 06:37:03;;;;;;;15.18;9.70;;;16.60;99.90;;;;;;5192051;27;20379;-78
2021/06/29 06:40:14;;;;;;;17.35;9.70;;;16.70;99.90;;;;;;5148741;27;20440;-78
2021/06/29 06:43:12;;;;;;;18.92;10.43;;;16.70;99.90;;;;;;5194111;27;20387;-78
2021/06/29 06:46:08;;;;;;;16.58;10.82;;;16.80;99.90;;;;;;5085684;28;20385;-78
2021/06/29 06:49:12;;;;;;;25.38;12.88;;;16.80;99.90;;;;;;5139503;27;20397;-78
2021/06/29 06:52:08;;;;;;;18.40;11.10;;;16.80;99.90;;;;;;5186864;27;20391;-79
2021/06/29 06:55:11;;;;;;;19.98;11.27;;;16.80;99.90;;;;;;5185593;27;20415;-77
2021/06/29 06:58:20;;;;;;;26.92;12.18;;;16.80;99.90;;;;;;4464752;27;18723657;-84
2021/06/29 07:01:39;;;;;;;20.65;12.48;;;16.80;99.90;;;;;;5134480;27;20402;-80
2021/06/29 07:04:35;;;;;;;19.25;11.85;;;16.80;99.90;;;;;;5185761;27;20394;-79
2021/06/29 07:07:39;;;;;;;22.55;12.65;;;16.80;99.90;;;;;;5184653;27;20381;-86
2021/06/29 07:11:44;;;;;;;20.88;12.52;;;16.90;99.90;;;;;;5094090;28;20353;-81
2021/06/29 07:14:44;;;;;;;24.42;13.70;;;16.90;99.90;;;;;;5117035;27;20404;-82
2021/06/29 07:17:42;;;;;;;23.65;14.02;;;17.00;99.90;;;;;;5110166;27;20419;-80
2021/06/29 07:20:18;;;;;;;23.45;12.32;;;17.00;99.90;;;;;;4237182;27;24186300;-81
2021/06/29 07:22:59;;;;;;;25.35;11.98;;;17.00;99.90;;;;;;5128065;27;20958;-82
2021/06/29 07:25:52;;;;;;;20.55;12.55;;;17.10;99.90;;;;;;5077355;27;20404;-82
2021/06/29 07:29:51;;;;;;;22.83;15.07;;;17.10;99.90;;;;;;5027792;27;1307518;-82
2021/06/29 07:32:43;;;;;;;22.33;12.13;;;17.20;99.90;;;;;;5109349;27;20120;-84
2021/06/29 07:35:23;;;;;;;21.65;12.98;;;17.30;99.90;;;;;;4964092;27;4263993;-84
2021/06/29 07:38:03;;;;;;;20.38;11.77;;;17.40;99.90;;;;;;5108662;27;20666;-83
2021/06/29 07:40:59;;;;;;;26.80;13.18;;;17.50;99.90;;;;;;5108206;27;20414;-84
2021/06/29 07:43:39;;;;;;;24.98;14.32;;;17.70;99.90;;;;;;5110889;27;20414;-81
2021/06/29 07:46:17;;;;;;;25.60;13.82;;;17.90;99.90;;;;;;5110377;27;20380;-82
2021/06/29 07:48:55;;;;;;;22.80;13.38;;;18.00;99.90;;;;;;5119180;27;20413;-81
2021/06/29 07:51:34;;;;;;;24.15;12.80;;;18.10;99.90;;;;;;5068088;27;1315904;-85
2021/06/29 07:54:14;;;;;;;28.40;14.02;;;18.10;99.90;;;;;;5098244;27;20381;-83
2021/06/29 07:56:54;;;;;;;30.02;12.50;;;18.20;99.90;;;;;;5141868;27;20390;-81
2021/06/29 07:59:33;;;;;;;27.05;15.55;;;18.20;99.90;;;;;;5174987;27;20400;-82
2021/06/29 08:02:13;;;;;;;38.78;14.77;;;18.20;99.90;;;;;;5116492;27;20436;-80
2021/06/29 08:05:07;;;;;;;26.00;12.63;;;18.20;99.90;;;;;;5120610;27;20971;-81
2021/06/29 08:07:46;;;;;;;30.50;14.55;;;18.20;99.90;;;;;;5111371;27;20377;-81
2021/06/29 08:10:24;;;;;;;22.80;12.40;;;18.20;99.90;;;;;;5011627;27;1299484;-81
2021/06/29 08:12:53;;;;;;;23.60;12.63;;;18.20;99.90;;;;;;5047512;28;20048;-82
2021/06/29 08:15:35;;;;;;;23.75;12.25;;;18.10;99.90;;;;;;5098159;27;21189;-83
2021/06/29 08:18:41;;;;;;;22.98;13.50;;;18.10;99.90;;;;;;5088762;28;20360;-81
2021/06/29 08:21:21;;;;;;;24.70;12.18;;;18.10;99.90;;;;;;5098710;27;20401;-83
2021/06/29 08:24:05;;;;;;;26.15;13.40;;;18.10;99.90;;;;;;5126898;27;20140;-81
2021/06/29 08:27:06;;;;;;;26.17;13.68;;;18.10;99.90;;;;;;5191935;27;20413;-82
2021/06/29 08:29:46;;;;;;;27.55;14.40;;;18.20;99.90;;;;;;5111911;27;20434;-82
2021/06/29 08:32:39;;;;;;;23.67;11.88;;;18.20;99.90;;;;;;5090345;27;20402;-81
2021/06/29 08:35:18;;;;;;;23.42;12.75;;;18.20;99.90;;;;;;5159835;27;20381;-85
2021/06/29 08:37:56;;;;;;;26.60;11.30;;;18.30;99.90;;;;;;5019846;27;1323247;-81
2021/06/29 08:40:38;;;;;;;29.52;14.50;;;18.40;99.90;;;;;;5168944;27;20411;-81
2021/06/29 08:43:28;;;;;;;22.88;12.13;;;18.40;99.90;;;;;;5074069;28;20409;-84
2021/06/29 08:46:30;;;;;;;66.50;18.83;;;18.50;99.90;;;;;;5193064;27;20385;-82
2021/06/29 08:49:23;;;;;;;21.65;11.20;;;18.50;99.90;;;;;;5085867;27;20411;-83
2021/06/29 08:52:07;;;;;;;21.80;12.20;;;18.50;99.90;;;;;;5130130;27;20380;-83
2021/06/29 08:54:49;;;;;;;21.02;11.77;;;18.50;99.90;;;;;;5079378;28;20754;-82
2021/06/29 08:57:30;;;;;;;19.85;10.50;;;18.40;99.90;;;;;;5113298;27;20371;-85
2021/06/29 09:00:25;;;;;;;25.70;11.40;;;18.40;99.90;;;;;;5106633;27;20885;-82
2021/06/29 09:03:05;;;;;;;24.67;10.05;;;18.40;99.90;;;;;;4994811;27;1321379;-82
2021/06/29 09:16:31;;;;;;;20.13;10.77;;;18.40;99.90;;;;;;5148278;27;20427;-80
2021/06/29 09:19:12;;;;;;;18.27;10.60;;;18.80;99.90;;;;;;5179677;27;20377;-82
2021/06/29 09:21:49;;;;;;;18.58;9.95;;;18.80;99.90;;;;;;5063220;27;1324671;-81
2021/06/29 09:24:32;;;;;;;17.08;9.10;;;18.90;99.90;;;;;;5080490;27;20388;-82
2021/06/29 09:27:11;;;;;;;39.85;14.00;;;19.00;99.90;;;;;;5139476;27;20388;-84
2021/06/29 09:29:51;;;;;;;28.30;12.38;;;19.00;99.90;;;;;;5094037;27;20914;-86
2021/06/29 09:32:33;;;;;;;19.75;9.82;;;19.00;99.90;;;;;;5074710;27;1344458;-82
2021/06/29 09:35:28;;;;;;;26.25;10.57;;;19.00;99.90;;;;;;5081401;27;20410;-82
2021/06/29 09:38:28;;;;;;;16.02;8.75;;;19.00;99.90;;;;;;5100255;27;20417;-82
2021/06/29 09:41:17;;;;;;;15.80;9.07;;;19.00;99.90;;;;;;5074435;27;1449741;-83
2021/06/29 09:44:23;;;;;;;18.15;10.05;;;19.00;99.90;;;;;;5182386;27;20389;-84
2021/06/29 09:47:25;;;;;;;19.02;8.88;;;19.00;99.90;;;;;;5166711;27;20370;-84
2021/06/29 09:50:38;;;;;;;17.85;8.90;;;19.30;99.90;;;;;;5017880;27;1307972;-82
2021/06/29 09:53:31;;;;;;;21.90;10.07;;;19.50;99.90;;;;;;5097880;27;21106;-85
2021/06/29 09:56:25;;;;;;;19.98;10.82;;;19.70;99.90;;;;;;5108228;27;20751;-83
2021/06/29 09:59:24;;;;;;;21.23;9.73;;;20.00;99.90;;;;;;5079030;27;20888;-81
2021/06/29 10:02:12;;;;;;;15.13;8.55;;;20.20;99.90;;;;;;5144520;27;20384;-83
2021/06/29 10:05:24;;;;;;;17.75;9.02;;;20.30;99.90;;;;;;5177880;27;20410;-85
2021/06/29 10:08:11;;;;;;;10.38;5.50;;;20.50;99.90;;;;;;5145595;27;20437;-85
